createdAt,value
2018-12-16T00:01:52.830Z,82.60
2018-12-16T00:04:24.329Z,82.20
2018-12-16T00:06:55.819Z,82.30
2018-12-16T00:09:27.332Z,82.40
2018-12-16T00:11:58.965Z,82.80
2018-12-16T00:14:30.534Z,83.70
2018-12-16T00:17:02.078Z,83.40
2018-12-16T00:19:33.626Z,84.00
2018-12-16T00:22:05.366Z,84.00
2018-12-16T00:24:36.947Z,84.80
2018-12-16T00:27:13.856Z,84.60
2018-12-16T00:29:45.276Z,84.80
2018-12-16T00:32:16.895Z,85.10
2018-12-16T00:34:48.400Z,85.30
2018-12-16T00:37:20.004Z,85.40
2018-12-16T00:39:51.500Z,86.00
2018-12-16T00:42:23.066Z,85.90
2018-12-16T00:44:54.508Z,85.40
2018-12-16T00:47:26.033Z,85.20
2018-12-16T00:49:57.520Z,85.60
2018-12-16T00:52:29.121Z,84.80
2018-12-16T00:55:00.614Z,84.70
2018-12-16T00:57:32.344Z,84.60
2018-12-16T01:00:06.007Z,84.50
2018-12-16T01:02:43.225Z,84.50
2018-12-16T01:05:15.319Z,84.00
2018-12-16T01:07:46.801Z,83.90
2018-12-16T01:10:18.499Z,84.20
2018-12-16T01:12:50.009Z,84.10
2018-12-16T01:15:21.561Z,83.20
2018-12-16T01:17:53.017Z,83.70
2018-12-16T01:20:24.616Z,83.90
2018-12-16T01:22:56.116Z,84.30
2018-12-16T01:25:27.716Z,84.70
2018-12-16T01:27:59.222Z,85.00
2018-12-16T01:30:30.836Z,84.70
2018-12-16T01:33:02.336Z,84.70
2018-12-16T01:35:33.878Z,84.60
2018-12-16T01:38:05.336Z,84.90
2018-12-16T01:40:36.931Z,85.10
2018-12-16T01:43:08.449Z,86.10
2018-12-16T01:45:40.043Z,87.00
2018-12-16T01:48:11.560Z,87.30
2018-12-16T01:50:43.143Z,87.00
2018-12-16T01:53:14.689Z,86.80
2018-12-16T01:55:46.359Z,86.80
2018-12-16T01:58:17.859Z,86.60
2018-12-16T02:00:49.468Z,86.40
2018-12-16T02:03:20.985Z,86.10
2018-12-16T02:05:52.581Z,85.80
2018-12-16T02:08:24.199Z,85.70
2018-12-16T02:10:55.832Z,85.50
2018-12-16T02:13:27.257Z,85.30
2018-12-16T02:15:59.044Z,85.00
2018-12-16T02:18:30.656Z,85.30
2018-12-16T02:21:02.161Z,85.40
2018-12-16T02:23:33.718Z,85.50
2018-12-16T02:26:05.168Z,85.20
2018-12-16T02:28:36.770Z,84.70
2018-12-16T02:31:08.277Z,84.30
2018-12-16T02:33:39.890Z,84.00
2018-12-16T02:36:11.382Z,83.90
2018-12-16T02:38:42.991Z,84.50
2018-12-16T02:41:14.484Z,84.50
2018-12-16T02:43:46.659Z,84.20
2018-12-16T02:46:18.258Z,84.70
2018-12-16T02:48:49.769Z,84.50
2018-12-16T02:51:21.366Z,84.30
2018-12-16T02:53:52.872Z,84.30
2018-12-16T02:56:24.474Z,84.30
2018-12-16T02:58:55.978Z,84.30
2018-12-16T03:01:27.628Z,83.90
2018-12-16T03:03:59.044Z,83.60
2018-12-16T03:06:30.634Z,83.70
2018-12-16T03:09:02.048Z,83.80
2018-12-16T03:11:33.641Z,84.00
2018-12-16T03:14:05.252Z,83.40
2018-12-16T03:16:36.775Z,83.50
2018-12-16T03:19:08.364Z,83.70
2018-12-16T03:21:39.871Z,84.00
2018-12-16T03:24:11.484Z,84.20
2018-12-16T03:26:42.970Z,84.40
2018-12-16T03:29:14.573Z,84.50
2018-12-16T03:31:46.082Z,84.60
2018-12-16T03:34:17.617Z,84.80
2018-12-16T03:36:49.086Z,85.00
2018-12-16T03:39:20.505Z,84.90
2018-12-16T03:41:51.989Z,85.00
2018-12-16T03:44:23.592Z,84.60
2018-12-16T03:46:55.089Z,84.00
2018-12-16T03:49:26.697Z,83.40
2018-12-16T03:51:58.277Z,83.90
2018-12-16T03:54:29.854Z,83.20
2018-12-16T03:57:01.353Z,83.40
2018-12-16T03:59:32.864Z,83.50
2018-12-16T04:02:04.293Z,83.90
2018-12-16T04:04:35.861Z,84.90
2018-12-16T04:07:07.298Z,84.90
2018-12-16T04:09:38.955Z,85.50
2018-12-16T04:12:12.537Z,84.60
2018-12-16T04:14:44.038Z,84.50
2018-12-16T04:17:15.431Z,84.50
2018-12-16T04:19:47.031Z,84.40
2018-12-16T04:22:18.634Z,84.30
2018-12-16T04:24:50.145Z,84.20
2018-12-16T04:27:21.744Z,83.70
2018-12-16T04:29:53.289Z,83.90
2018-12-16T04:32:24.896Z,83.80
2018-12-16T04:34:56.352Z,83.90
2018-12-16T04:37:27.895Z,83.80
2018-12-16T04:39:59.363Z,83.70
2018-12-16T04:42:30.909Z,83.70
2018-12-16T04:45:02.375Z,83.60
2018-12-16T04:47:33.969Z,83.80
2018-12-16T04:50:06.015Z,83.20
2018-12-16T04:52:37.630Z,82.90
2018-12-16T04:55:09.116Z,83.10
2018-12-16T04:57:40.837Z,83.30
2018-12-16T05:00:12.549Z,83.00
2018-12-16T05:02:44.162Z,83.40
2018-12-16T05:05:15.583Z,83.60
2018-12-16T05:07:47.917Z,84.80
2018-12-16T05:10:30.533Z,84.50
2018-12-16T05:13:02.153Z,83.70
2018-12-16T05:15:33.590Z,83.70
2018-12-16T05:18:05.358Z,84.40
2018-12-16T05:20:36.872Z,83.60
2018-12-16T05:23:08.496Z,83.60
2018-12-16T05:25:39.875Z,83.70
2018-12-16T05:28:11.480Z,83.80
2018-12-16T05:30:43.085Z,83.70
2018-12-16T05:33:14.584Z,84.20
2018-12-16T05:35:46.125Z,83.70
2018-12-16T05:38:17.556Z,83.70
2018-12-16T05:40:49.130Z,83.80
2018-12-16T05:43:20.689Z,83.70
2018-12-16T05:45:52.236Z,83.60
2018-12-16T05:48:23.664Z,83.40
2018-12-16T05:50:55.249Z,83.30
2018-12-16T05:53:26.869Z,83.60
2018-12-16T05:55:58.372Z,83.60
2018-12-16T05:58:29.879Z,84.00
2018-12-16T06:01:01.496Z,83.90
2018-12-16T06:03:33.084Z,83.40
2018-12-16T06:06:04.607Z,83.60
2018-12-16T06:08:36.185Z,84.00
2018-12-16T06:11:07.697Z,83.90
2018-12-16T06:13:39.302Z,84.00
2018-12-16T06:16:10.809Z,84.00
2018-12-16T06:18:42.407Z,84.40
2018-12-16T06:21:13.868Z,84.20
2018-12-16T06:23:45.544Z,83.80
2018-12-16T06:26:16.978Z,84.10
2018-12-16T06:28:48.658Z,84.00
2018-12-16T06:31:20.092Z,83.90
2018-12-16T06:33:51.658Z,83.70
2018-12-16T06:36:23.085Z,84.20
2018-12-16T06:38:54.670Z,84.20
2018-12-16T06:41:26.279Z,83.80
2018-12-16T06:43:57.785Z,83.70
2018-12-16T06:46:29.440Z,84.60
2018-12-16T06:49:00.856Z,85.00
2018-12-16T06:51:32.444Z,85.50
2018-12-16T06:54:04.062Z,83.80
2018-12-16T06:56:35.561Z,84.40
2018-12-16T06:59:07.159Z,83.40
2018-12-16T07:01:38.667Z,83.10
2018-12-16T07:04:10.266Z,83.80
2018-12-16T07:06:41.839Z,83.00
2018-12-16T07:09:13.525Z,83.30
2018-12-16T07:11:45.041Z,82.70
2018-12-16T07:14:16.641Z,83.70
2018-12-16T07:16:48.053Z,83.80
2018-12-16T07:19:19.652Z,83.20
2018-12-16T07:21:51.135Z,83.10
2018-12-16T07:24:22.778Z,83.50
2018-12-16T07:26:54.400Z,83.40
2018-12-16T07:29:25.949Z,83.40
2018-12-16T07:31:57.416Z,83.80
2018-12-16T07:34:28.978Z,83.20
2018-12-16T07:37:00.360Z,83.30
2018-12-16T07:39:31.974Z,83.50
2018-12-16T07:42:03.581Z,84.40
2018-12-16T07:44:35.086Z,83.60
2018-12-16T07:47:06.571Z,83.80
2018-12-16T07:49:38.185Z,83.40
2018-12-16T07:52:09.796Z,83.00
2018-12-16T07:54:41.297Z,83.20
2018-12-16T07:57:12.908Z,83.30
2018-12-16T07:59:44.767Z,83.50
2018-12-16T08:02:16.361Z,83.10
2018-12-16T08:04:48.760Z,83.10
2018-12-16T08:07:20.164Z,82.50
2018-12-16T08:09:51.746Z,83.00
2018-12-16T08:12:23.355Z,82.90
2018-12-16T08:14:54.861Z,83.40
2018-12-16T08:17:26.317Z,82.00
2018-12-16T08:19:57.765Z,81.70
2018-12-16T08:22:29.171Z,81.80
2018-12-16T08:25:00.777Z,81.90
2018-12-16T08:27:32.165Z,81.80
2018-12-16T08:30:03.770Z,81.60
2018-12-16T08:32:35.379Z,80.90
2018-12-16T08:35:07.416Z,81.10
2018-12-16T08:37:39.023Z,80.80
2018-12-16T08:40:10.992Z,80.00
2018-12-16T08:42:42.414Z,78.70
2018-12-16T08:45:14.111Z,79.40
2018-12-16T08:47:45.715Z,78.10
2018-12-16T08:50:17.219Z,77.30
2018-12-16T08:52:48.766Z,76.00
2018-12-16T08:55:20.216Z,76.10
2018-12-16T08:57:51.769Z,75.60
2018-12-16T09:00:23.243Z,75.90
2018-12-16T09:02:54.833Z,76.70
2018-12-16T09:05:26.151Z,75.90
2018-12-16T09:07:57.561Z,76.30
2018-12-16T09:10:34.130Z,76.20
2018-12-16T09:13:02.734Z,76.30
2018-12-16T09:15:34.205Z,75.50
2018-12-16T09:18:05.642Z,75.60
2018-12-16T09:20:37.730Z,76.60
2018-12-16T09:23:22.531Z,77.30
2018-12-16T09:26:18.052Z,79.00
2018-12-16T09:29:02.737Z,79.80
2018-12-16T09:31:53.234Z,80.80
2018-12-16T09:34:32.822Z,81.40
2018-12-16T09:37:11.555Z,82.20
2018-12-16T09:39:53.494Z,83.20
2018-12-16T09:42:34.852Z,84.00
2018-12-16T09:45:16.308Z,83.50
2018-12-16T09:47:52.662Z,84.40
2018-12-16T09:50:29.828Z,83.30
2018-12-16T09:53:07.493Z,85.60
2018-12-16T09:55:43.987Z,85.30
2018-12-16T09:58:18.935Z,85.70
2018-12-16T10:01:01.894Z,85.60
2018-12-16T10:03:38.773Z,87.60
2018-12-16T10:06:17.498Z,88.10
2018-12-16T10:08:51.502Z,88.50
2018-12-16T10:11:25.870Z,87.90
2018-12-16T10:13:59.210Z,88.70
2018-12-16T10:16:33.203Z,89.30
2018-12-16T10:19:06.736Z,89.60
2018-12-16T10:21:39.476Z,90.10
2018-12-16T10:24:11.315Z,90.30
2018-12-16T10:26:43.121Z,90.30
2018-12-16T10:29:14.508Z,90.50
2018-12-16T10:31:45.971Z,90.50
2018-12-16T10:34:17.616Z,90.30
2018-12-16T10:36:49.603Z,90.50
2018-12-16T10:39:21.167Z,90.70
2018-12-16T10:41:52.573Z,90.80
2018-12-16T10:44:24.164Z,90.70
2018-12-16T10:46:56.719Z,90.70
2018-12-16T10:49:29.429Z,90.70
2018-12-16T10:52:00.876Z,91.20
2018-12-16T10:54:32.306Z,91.10
2018-12-16T10:57:03.795Z,91.10
2018-12-16T10:59:35.208Z,91.30
2018-12-16T11:02:06.801Z,91.60
2018-12-16T11:04:38.067Z,91.60
2018-12-16T11:07:10.232Z,91.80
2018-12-16T11:09:41.592Z,92.50
2018-12-16T11:12:13.221Z,92.70
2018-12-16T11:14:44.960Z,92.70
2018-12-16T11:17:19.620Z,92.40
2018-12-16T11:19:55.260Z,92.40
2018-12-16T11:22:28.187Z,92.60
2018-12-16T11:25:05.635Z,92.50
2018-12-16T11:27:35.841Z,92.40
2018-12-16T11:30:16.280Z,93.20
2018-12-16T11:32:48.487Z,93.40
2018-12-16T11:35:20.033Z,93.40
2018-12-16T11:37:51.514Z,92.90
2018-12-16T11:40:31.200Z,93.60
2018-12-16T11:43:10.150Z,93.30
2018-12-16T11:45:44.798Z,93.00
2018-12-16T11:48:19.322Z,93.50
2018-12-16T11:50:53.935Z,93.30
2018-12-16T11:53:25.761Z,93.00
2018-12-16T11:55:57.676Z,93.30
2018-12-16T11:58:29.502Z,93.50
2018-12-16T12:01:01.325Z,93.60
2018-12-16T12:03:33.021Z,93.40
2018-12-16T12:06:05.412Z,93.70
2018-12-16T12:08:37.084Z,93.60
2018-12-16T12:11:08.657Z,93.80
2018-12-16T12:13:40.180Z,94.10
2018-12-16T12:16:11.829Z,94.00
2018-12-16T12:18:43.272Z,94.20
2018-12-16T12:21:16.124Z,94.80
2018-12-16T12:23:48.136Z,94.60
2018-12-16T12:26:21.888Z,94.70
2018-12-16T12:28:53.449Z,94.90
2018-12-16T12:31:26.703Z,94.90
2018-12-16T12:34:04.341Z,95.10
2018-12-16T12:36:40.371Z,94.80
2018-12-16T12:39:12.517Z,94.90
2018-12-16T12:41:52.588Z,94.20
2018-12-16T12:44:24.641Z,94.00
2018-12-16T12:46:56.168Z,94.00
2018-12-16T12:49:27.819Z,93.80
2018-12-16T12:51:59.500Z,93.40
2018-12-16T12:54:30.905Z,93.50
2018-12-16T12:57:02.204Z,93.60
2018-12-16T12:59:33.832Z,93.90
2018-12-16T13:02:05.224Z,93.90
2018-12-16T13:04:36.647Z,93.40
2018-12-16T13:07:08.419Z,93.40
2018-12-16T13:09:40.047Z,92.70
2018-12-16T13:12:11.794Z,92.90
2018-12-16T13:14:43.444Z,92.50
2018-12-16T13:17:15.038Z,92.40
2018-12-16T13:19:46.635Z,92.60
2018-12-16T13:22:18.143Z,93.00
2018-12-16T13:25:06.059Z,93.50
2018-12-16T13:27:37.806Z,93.30
2018-12-16T13:30:09.811Z,93.50
2018-12-16T13:32:41.249Z,93.60
2018-12-16T13:35:13.446Z,93.60
2018-12-16T13:37:44.832Z,93.70
2018-12-16T13:40:16.534Z,93.90
2018-12-16T13:42:48.522Z,94.30
2018-12-16T13:45:21.077Z,94.40
2018-12-16T13:47:52.676Z,93.50
2018-12-16T13:50:24.184Z,92.90
2018-12-16T13:52:55.805Z,92.90
2018-12-16T13:55:28.649Z,92.40
2018-12-16T13:58:00.499Z,92.50
2018-12-16T14:00:31.938Z,92.60
2018-12-16T14:03:03.221Z,92.80
2018-12-16T14:05:34.836Z,92.90
2018-12-16T14:08:09.132Z,92.60
2018-12-16T14:10:41.126Z,92.80
2018-12-16T14:13:12.772Z,93.00
2018-12-16T14:15:44.180Z,93.30
2018-12-16T14:18:15.873Z,93.30
2018-12-16T14:20:47.286Z,93.40
2018-12-16T14:23:19.401Z,93.30
2018-12-16T14:25:52.357Z,92.70
2018-12-16T14:28:24.169Z,93.10
2018-12-16T14:30:56.746Z,93.00
2018-12-16T14:33:39.545Z,92.80
2018-12-16T14:36:11.612Z,92.70
2018-12-16T14:38:43.469Z,92.80
2018-12-16T14:41:15.228Z,93.00
2018-12-16T14:43:46.977Z,93.20
2018-12-16T14:46:18.734Z,93.30
2018-12-16T14:48:50.616Z,92.80
2018-12-16T14:51:22.380Z,93.00
2018-12-16T14:53:54.355Z,93.20
2018-12-16T14:56:26.332Z,93.00
2018-12-16T14:58:57.841Z,93.00
2018-12-16T15:01:29.923Z,93.10
2018-12-16T15:04:01.952Z,93.40
2018-12-16T15:06:33.737Z,93.60
2018-12-16T15:09:09.709Z,94.00
2018-12-16T15:11:41.910Z,94.10
2018-12-16T15:14:14.140Z,94.10
2018-12-16T15:16:47.072Z,94.00
2018-12-16T15:19:18.677Z,93.20
2018-12-16T15:21:50.759Z,93.50
2018-12-16T15:24:22.224Z,93.40
2018-12-16T15:26:53.823Z,93.30
2018-12-16T15:29:25.249Z,92.60
2018-12-16T15:31:56.832Z,92.90
2018-12-16T15:34:28.385Z,93.00
2018-12-16T15:36:59.930Z,92.90
2018-12-16T15:39:31.448Z,93.00
2018-12-16T15:42:03.051Z,93.20
2018-12-16T15:44:34.656Z,93.10
2018-12-16T15:47:06.256Z,93.60
2018-12-16T15:49:37.872Z,94.00
2018-12-16T15:52:09.480Z,93.90
2018-12-16T15:54:41.026Z,93.80
2018-12-16T15:57:12.458Z,94.00
2018-12-16T15:59:44.227Z,94.20
2018-12-16T16:02:15.720Z,94.50
2018-12-16T16:04:47.403Z,94.70
2018-12-16T16:07:18.917Z,94.80
2018-12-16T16:09:50.513Z,94.90
2018-12-16T16:12:22.016Z,95.30
2018-12-16T16:14:53.617Z,95.30
2018-12-16T16:17:25.132Z,95.10
2018-12-16T16:19:56.774Z,95.10
2018-12-16T16:22:28.237Z,95.00
2018-12-16T16:24:59.764Z,95.00
2018-12-16T16:27:31.247Z,95.10
2018-12-16T16:30:02.846Z,95.20
2018-12-16T16:32:34.340Z,95.10
2018-12-16T16:35:06.433Z,95.10
2018-12-16T16:37:38.083Z,95.60
2018-12-16T16:40:09.831Z,95.50
2018-12-16T16:42:41.369Z,95.50
2018-12-16T16:45:12.837Z,95.80
2018-12-16T16:47:44.368Z,96.00
2018-12-16T16:50:15.837Z,95.60
2018-12-16T16:52:47.443Z,95.50
2018-12-16T16:55:18.945Z,95.40
2018-12-16T16:57:50.499Z,95.40
2018-12-16T17:00:22.062Z,95.50
2018-12-16T17:02:53.691Z,95.60
2018-12-16T17:14:05.630Z,96.00
2018-12-16T17:16:37.157Z,95.50
2018-12-16T17:19:09.142Z,95.80
2018-12-16T17:21:41.804Z,95.80
2018-12-16T17:24:13.308Z,95.90
2018-12-16T17:26:45.015Z,96.00
2018-12-16T17:29:16.526Z,96.10
2018-12-16T17:31:48.132Z,96.20
2018-12-16T17:34:20.051Z,96.40
2018-12-16T17:36:51.583Z,96.50
2018-12-16T17:39:22.996Z,96.50
2018-12-16T17:41:54.598Z,96.30
2018-12-16T17:44:26.107Z,95.90
2018-12-16T17:46:57.614Z,95.80
2018-12-16T17:49:29.219Z,95.60
2018-12-16T17:52:00.714Z,95.50
2018-12-16T17:54:32.108Z,95.30
2018-12-16T17:57:03.712Z,96.00
2018-12-16T17:59:35.072Z,95.70
2018-12-16T18:02:07.050Z,95.50
2018-12-16T18:04:38.736Z,95.50
2018-12-16T18:07:10.245Z,95.70
2018-12-16T18:09:41.847Z,95.80
2018-12-16T18:12:13.408Z,95.90
2018-12-16T18:14:45.058Z,96.10
2018-12-16T18:17:16.558Z,96.30
2018-12-16T18:19:48.097Z,96.50
2018-12-16T18:22:19.622Z,96.70
2018-12-16T18:24:51.207Z,96.50
2018-12-16T18:27:22.640Z,96.60
2018-12-16T18:32:36.311Z,97.00
2018-12-16T18:35:07.996Z,96.90
2018-12-16T18:37:39.896Z,96.70
2018-12-16T18:40:11.358Z,96.60
2018-12-16T18:42:42.872Z,96.30
2018-12-16T18:45:14.264Z,96.10
2018-12-16T18:47:45.747Z,96.30
2018-12-16T18:50:17.289Z,96.20
2018-12-16T18:52:48.759Z,96.70
2018-12-16T18:55:20.302Z,96.70
2018-12-16T18:57:51.760Z,96.80
2018-12-16T19:00:23.512Z,97.10
2018-12-16T19:02:54.872Z,97.40
2018-12-16T19:05:26.504Z,97.60
2018-12-16T19:07:57.932Z,98.10
2018-12-16T19:10:29.519Z,97.90
2018-12-16T19:13:00.876Z,97.60
2018-12-16T19:15:32.436Z,97.70
2018-12-16T19:18:03.847Z,97.90
2018-12-16T19:20:35.436Z,97.90
2018-12-16T19:23:07.441Z,97.90
2018-12-16T19:25:38.933Z,97.80
2018-12-16T19:28:10.223Z,97.70
2018-12-16T19:30:41.668Z,97.80
2018-12-16T19:33:13.055Z,97.80
2018-12-16T19:35:48.740Z,98.00
2018-12-16T19:38:24.718Z,98.00
2018-12-16T19:41:03.309Z,97.90
2018-12-16T19:43:37.996Z,97.60
2018-12-16T19:46:09.619Z,97.30
2018-12-16T19:48:41.152Z,97.10
2018-12-16T19:51:12.805Z,96.70
2018-12-16T19:53:44.360Z,96.40
2018-12-16T19:56:15.920Z,96.10
2018-12-16T19:58:47.673Z,95.90
2018-12-16T20:01:19.165Z,96.20
2018-12-16T20:03:55.381Z,95.90
2018-12-16T20:06:31.824Z,96.00
2018-12-16T20:09:04.129Z,95.80
2018-12-16T20:11:35.686Z,95.80
2018-12-16T20:14:07.339Z,96.20
2018-12-16T20:16:38.980Z,96.00
2018-12-16T20:19:10.477Z,96.20
2018-12-16T20:21:42.003Z,96.40
2018-12-16T20:24:13.555Z,96.60
2018-12-16T20:26:45.177Z,96.90
2018-12-16T20:29:16.681Z,97.10
2018-12-16T20:31:48.201Z,96.80
2018-12-16T20:34:19.691Z,96.80
2018-12-16T20:36:51.319Z,96.80
2018-12-16T20:39:22.896Z,97.10
2018-12-16T20:41:54.495Z,97.10
2018-12-16T20:44:26.107Z,97.20
2018-12-16T20:46:57.510Z,97.00
2018-12-16T20:49:29.223Z,96.80
2018-12-16T20:52:00.704Z,96.50
2018-12-16T20:54:32.353Z,96.60
2018-12-16T20:57:03.780Z,96.50
2018-12-16T20:59:35.381Z,96.60
2018-12-16T21:02:06.978Z,96.70
2018-12-16T21:04:38.379Z,96.50
2018-12-16T21:07:09.969Z,96.30
2018-12-16T21:09:41.386Z,96.30
2018-12-16T21:12:17.852Z,96.40
2018-12-16T21:14:54.464Z,96.60
2018-12-16T21:17:30.684Z,96.70
2018-12-16T21:20:02.197Z,96.70
2018-12-16T21:22:33.811Z,97.10
2018-12-16T21:25:05.841Z,97.60
2018-12-16T21:27:37.351Z,97.90
2018-12-16T21:30:09.293Z,98.30
2018-12-16T21:32:40.780Z,98.50
2018-12-16T21:35:12.432Z,98.70
2018-12-16T21:37:43.897Z,98.80
2018-12-16T21:40:15.298Z,98.80
2018-12-16T21:42:46.879Z,98.70
2018-12-16T21:45:18.434Z,98.70
2018-12-16T21:47:49.988Z,98.60
2018-12-16T21:50:21.544Z,98.40
2018-12-16T21:52:53.098Z,98.10
2018-12-16T21:55:24.531Z,98.00
2018-12-16T21:57:56.101Z,98.00
2018-12-16T22:00:27.533Z,98.00
2018-12-16T22:02:59.121Z,98.30
2018-12-16T22:05:34.237Z,98.70
2018-12-16T22:08:05.852Z,98.70
2018-12-16T22:10:37.455Z,98.60
2018-12-16T22:13:08.875Z,98.50
2018-12-16T22:15:40.465Z,98.40
2018-12-16T22:18:12.072Z,98.40
2018-12-16T22:20:43.584Z,98.20
2018-12-16T22:23:15.185Z,98.20
2018-12-16T22:25:46.682Z,98.00
2018-12-16T22:28:18.233Z,97.60
2018-12-16T22:30:49.695Z,97.50
2018-12-16T22:33:21.333Z,97.50
2018-12-16T22:35:52.812Z,97.40
2018-12-16T22:38:24.215Z,97.30
2018-12-16T22:40:55.790Z,97.30
2018-12-16T22:43:27.211Z,97.40
2018-12-16T22:45:58.804Z,97.50
2018-12-16T22:48:30.417Z,97.10
2018-12-16T22:51:01.914Z,97.10
2018-12-16T22:53:33.528Z,96.90
2018-12-16T22:56:05.055Z,96.70
2018-12-16T22:58:36.432Z,97.00
2018-12-16T23:01:13.413Z,96.60
2018-12-16T23:03:44.929Z,96.60
2018-12-16T23:06:16.326Z,96.80
2018-12-16T23:08:47.902Z,96.90
2018-12-16T23:11:19.563Z,97.00
2018-12-16T23:13:51.121Z,97.10
2018-12-16T23:16:22.667Z,97.00
2018-12-16T23:18:54.389Z,96.90
2018-12-16T23:21:26.828Z,96.90
2018-12-16T23:23:58.320Z,97.00
2018-12-16T23:26:29.817Z,96.80
2018-12-16T23:29:01.400Z,96.90
2018-12-16T23:31:32.929Z,96.90
2018-12-16T23:34:04.476Z,97.30
2018-12-16T23:36:35.926Z,97.00
2018-12-16T23:39:08.308Z,97.00
2018-12-16T23:41:39.855Z,97.00
2018-12-16T23:44:11.313Z,96.70
2018-12-16T23:46:42.926Z,96.80
2018-12-16T23:49:14.418Z,97.00
2018-12-16T23:51:46.001Z,97.20
2018-12-16T23:54:17.425Z,97.70
2018-12-16T23:56:49.136Z,97.70
2018-12-16T23:59:20.740Z,97.80
